Time;durP1;ratioP1;P1;durP2;ratioP2;P2;SDS_P1;SDS_P2;PMS_P1;PMS_P2;Temp;Humidity;BMP_temperature;BMP_pressure;BME280_temperature;BME280_humidity;BME280_pressure;Samples;Min_cycle;Max_cycle;Signal;HPM_P1;HPM_P2
2023/12/08 00:00:40;;;;;;;;;25.75;21.50;;;;;2.51;82.77;100793.91;5045030;28;11535;-67
2023/12/08 00:03:06;;;;;;;;;29.50;24.50;;;;;2.54;82.49;100788.31;5044049;28;11521;-68
2023/12/08 00:05:33;;;;;;;;;30.25;25.75;;;;;2.58;82.26;100787.03;5041968;28;11625;-69
2023/12/08 00:07:59;;;;;;;;;22.75;21.75;;;;;2.61;82.36;100780.63;5041652;28;11542;-66
2023/12/08 00:10:26;;;;;;;;;31.00;24.25;;;;;2.56;82.28;100782.88;5046498;28;11582;-67
2023/12/08 00:12:52;;;;;;;;;23.25;23.00;;;;;2.57;82.46;100769.44;5035915;28;11627;-67
2023/12/08 00:15:19;;;;;;;;;27.75;22.75;;;;;2.59;82.98;100761.31;5022154;28;11572;-67
2023/12/08 00:17:45;;;;;;;;;23.25;19.25;;;;;2.57;82.49;100742.88;5040483;28;11513;-67
2023/12/08 00:20:12;;;;;;;;;29.25;28.00;;;;;2.53;82.33;100741.47;5024445;28;12364;-68
2023/12/08 00:22:39;;;;;;;;;32.75;28.25;;;;;2.47;82.56;100734.94;5040304;28;11518;-67
2023/12/08 00:25:06;;;;;;;;;31.00;27.75;;;;;2.51;82.62;100729.31;5025697;28;11529;-67
2023/12/08 00:27:32;;;;;;;;;33.50;26.50;;;;;2.47;82.96;100704.84;5022655;28;11597;-67
2023/12/08 00:29:59;;;;;;;;;32.00;29.50;;;;;2.38;83.10;100724.31;5041786;28;11553;-67
2023/12/08 00:32:26;;;;;;;;;30.75;27.50;;;;;2.34;82.85;100707.81;5047254;28;11568;-67
2023/12/08 00:34:53;;;;;;;;;31.75;28.00;;;;;2.33;83.45;100694.69;5045347;28;11661;-68
2023/12/08 00:37:20;;;;;;;;;35.25;30.50;;;;;2.33;83.65;100695.53;5025845;28;11490;-67
2023/12/08 00:39:47;;;;;;;;;29.75;24.25;;;;;2.36;83.54;100702.38;5029307;28;11553;-69
2023/12/08 00:42:14;;;;;;;;;33.25;29.75;;;;;2.35;84.28;100685.63;5040356;28;11537;-67
2023/12/08 00:44:41;;;;;;;;;36.50;32.50;;;;;2.37;83.73;100670.34;5031508;28;12308;-67
2023/12/08 00:47:07;;;;;;;;;31.75;26.50;;;;;2.36;83.66;100673.16;5039199;28;11537;-67
2023/12/08 00:49:34;;;;;;;;;28.50;24.25;;;;;2.34;83.73;100677.78;5043746;28;11617;-66
2023/12/08 00:52:00;;;;;;;;;32.50;32.25;;;;;2.34;84.13;100680.44;5023661;28;12499;-68
2023/12/08 00:54:27;;;;;;;;;29.50;26.25;;;;;2.41;84.16;100671.75;5032803;28;11557;-68
2023/12/08 00:56:53;;;;;;;;;28.25;26.00;;;;;2.37;84.29;100665.03;5039443;28;11546;-67
2023/12/08 00:59:20;;;;;;;;;26.33;23.33;;;;;2.44;84.19;100662.66;5024533;28;11583;-67
2023/12/08 01:01:46;;;;;;;;;29.25;24.75;;;;;2.51;84.22;100657.56;5042868;28;12275;-67
2023/12/08 01:04:13;;;;;;;;;34.00;31.75;;;;;2.45;84.67;100645.72;5044267;28;12260;-69
2023/12/08 01:06:39;;;;;;;;;37.00;30.50;;;;;2.46;84.43;100653.53;5024567;28;11557;-68
2023/12/08 01:09:06;;;;;;;;;38.25;32.50;;;;;2.49;84.26;100652.41;5040820;28;12213;-69
2023/12/08 01:11:32;;;;;;;;;34.75;27.25;;;;;2.49;84.60;100652.41;5047055;28;11561;-67
2023/12/08 01:13:59;;;;;;;;;37.00;34.25;;;;;2.44;84.72;100647.53;5046665;28;11543;-67
2023/12/08 01:16:26;;;;;;;;;34.00;26.00;;;;;2.43;85.21;100645.88;5046272;28;11507;-67
2023/12/08 01:18:52;;;;;;;;;30.50;24.00;;;;;2.46;85.48;100647.38;5038452;28;11508;-67
2023/12/08 01:21:19;;;;;;;;;35.00;24.75;;;;;2.53;85.58;100642.34;5038436;28;11577;-67
2023/12/08 01:23:46;;;;;;;;;28.25;22.25;;;;;2.58;85.92;100653.34;5017997;28;12276;-68
2023/12/08 01:26:12;;;;;;;;;37.75;31.00;;;;;2.59;85.08;100669.13;5045195;28;11614;-68
2023/12/08 01:28:39;;;;;;;;;33.50;31.50;;;;;2.62;85.80;100668.84;5041520;28;11576;-68
2023/12/08 01:31:05;;;;;;;;;28.25;20.75;;;;;2.66;86.03;100680.03;5046702;28;11609;-67
2023/12/08 01:33:32;;;;;;;;;34.75;32.00;;;;;2.66;85.52;100682.69;5031706;28;11602;-69
2023/12/08 01:35:58;;;;;;;;;38.75;28.75;;;;;2.61;85.95;100682.28;5038257;28;11625;-67
2023/12/08 01:38:45;;;;;;;;;38.50;31.00;;;;;2.61;86.44;100692.94;5024441;28;11594;-67
2023/12/08 01:41:16;;;;;;;;;38.50;33.50;;;;;2.61;86.40;100682.28;5026527;28;11568;-68
2023/12/08 01:43:43;;;;;;;;;31.50;27.50;;;;;2.61;86.38;100687.59;5041189;28;11621;-69
2023/12/08 01:46:14;;;;;;;;;27.25;24.75;;;;;2.58;86.16;100667.47;5045944;28;11537;-67
2023/12/08 01:48:41;;;;;;;;;28.25;23.50;;;;;2.61;86.33;100653.91;5041314;28;11525;-68
2023/12/08 01:51:11;;;;;;;;;29.50;29.50;;;;;2.55;87.16;100658.94;5011042;28;11592;-68
2023/12/08 01:53:39;;;;;;;;;26.00;24.00;;;;;2.56;87.02;100650.03;5029585;28;11526;-66
2023/12/08 01:56:10;;;;;;;;;28.25;24.50;;;;;2.61;87.35;100659.22;5047935;28;11517;-67
2023/12/08 01:58:38;;;;;;;;;27.50;21.00;;;;;2.64;87.41;100652.78;5022949;28;11516;-68
2023/12/08 02:01:04;;;;;;;;;30.00;27.25;;;;;2.66;86.99;100662.25;5044443;28;12626;-67
2023/12/08 02:03:35;;;;;;;;;35.75;29.75;;;;;2.68;87.68;100670.94;5009875;28;11532;-66
2023/12/08 02:06:02;;;;;;;;;34.25;30.50;;;;;2.67;87.43;100657.78;5038803;28;11597;-67
2023/12/08 02:08:29;;;;;;;;;26.25;24.25;;;;;2.66;87.35;100650.78;5044182;28;11589;-67
2023/12/08 02:10:56;;;;;;;;;34.50;29.25;;;;;2.66;87.91;100632.19;5020982;28;11543;-67
2023/12/08 02:13:23;;;;;;;;;35.25;27.50;;;;;2.67;87.54;100628.53;5030146;28;11541;-66
2023/12/08 02:15:59;;;;;;;;;32.00;25.00;;;;;2.68;87.43;100622.25;5048129;28;11661;-68
2023/12/08 02:18:27;;;;;;;;;33.75;29.50;;;;;2.63;87.92;100614.75;5049145;28;11576;-67
2023/12/08 02:20:54;;;;;;;;;29.25;26.25;;;;;2.63;87.50;100604.13;5007406;28;11622;-67
2023/12/08 02:23:20;;;;;;;;;33.75;30.75;;;;;2.52;88.15;100606.13;5042036;28;11541;-67
2023/12/08 02:25:47;;;;;;;;;36.50;33.25;;;;;2.47;88.08;100599.44;5040761;28;11604;-66
2023/12/08 02:28:13;;;;;;;;;34.00;30.50;;;;;2.47;88.23;100588.81;5025490;28;11542;-66
2023/12/08 02:30:40;;;;;;;;;37.50;33.25;;;;;2.44;88.35;100575.81;5043191;28;11545;-66
2023/12/08 02:33:17;;;;;;;;;35.75;28.75;;;;;2.36;88.18;100570.41;5044744;28;12237;-67
2023/12/08 02:35:45;;;;;;;;;36.75;28.00;;;;;2.38;88.63;100560.47;5030714;28;11597;-68
2023/12/08 02:38:18;;;;;;;;;40.75;31.50;;;;;2.37;88.41;100563.28;5046746;28;11564;-69
2023/12/08 02:40:45;;;;;;;;;38.00;31.25;;;;;2.39;89.27;100561.28;5029889;28;11543;-67
2023/12/08 02:43:11;;;;;;;;;33.75;29.25;;;;;2.43;88.83;100560.88;5042721;28;11580;-66
2023/12/08 02:45:38;;;;;;;;;36.25;29.25;;;;;2.46;88.83;100568.53;5031407;28;11557;-68
2023/12/08 02:48:04;;;;;;;;;37.75;30.50;;;;;2.54;89.34;100566.94;5046445;28;12293;-67
2023/12/08 02:50:31;;;;;;;;;40.00;31.25;;;;;2.44;88.32;100554.56;5027347;28;11560;-67
2023/12/08 02:52:58;;;;;;;;;28.25;27.25;;;;;2.50;88.70;100554.94;5033318;28;11572;-67
2023/12/08 02:55:24;;;;;;;;;37.50;32.50;;;;;2.45;88.33;100548.25;5041999;28;11520;-68
2023/12/08 02:57:51;;;;;;;;;35.00;28.25;;;;;2.49;88.73;100551.47;5023376;28;11530;-68
2023/12/08 03:00:17;;;;;;;;;42.75;33.75;;;;;2.49;88.80;100543.50;5043034;28;11547;-67
2023/12/08 03:02:44;;;;;;;;;26.75;22.25;;;;;2.52;88.98;100537.06;5032745;28;11540;-67
2023/12/08 03:05:10;;;;;;;;;35.00;27.50;;;;;2.57;88.74;100530.28;5047407;28;12363;-69
2023/12/08 03:07:37;;;;;;;;;29.00;27.50;;;;;2.58;88.16;100525.81;5045624;28;11540;-67
2023/12/08 03:10:04;;;;;;;;;36.25;30.50;;;;;2.53;88.20;100525.44;5044656;28;11663;-67
2023/12/08 03:12:31;;;;;;;;;37.50;31.50;;;;;2.54;88.75;100517.31;5028675;28;11542;-68
2023/12/08 03:14:57;;;;;;;;;36.50;30.75;;;;;2.54;88.41;100513.81;5029001;28;11670;-68
2023/12/08 03:17:24;;;;;;;;;33.00;27.75;;;;;2.52;88.98;100521.94;5040475;28;12373;-67
2023/12/08 03:19:51;;;;;;;;;39.25;29.00;;;;;2.47;88.84;100524.19;5048316;28;11549;-67
2023/12/08 03:22:17;;;;;;;;;33.00;30.75;;;;;2.44;88.97;100520.03;5044053;28;11600;-67
2023/12/08 03:24:44;;;;;;;;;33.50;23.75;;;;;2.44;89.15;100514.72;5028576;28;11523;-67
2023/12/08 03:27:10;;;;;;;;;39.50;31.25;;;;;2.51;89.03;100524.72;5046641;28;11512;-66
2023/12/08 03:29:40;;;;;;;;;27.75;23.50;;;;;2.54;88.79;100513.81;5049714;28;11511;-69
2023/12/08 03:32:07;;;;;;;;;35.50;29.50;;;;;2.56;89.36;100519.81;5043290;28;11548;-67
2023/12/08 03:34:34;;;;;;;;;35.25;30.00;;;;;2.54;89.22;100508.50;5048127;28;11735;-67
2023/12/08 03:37:01;;;;;;;;;33.00;29.00;;;;;2.55;88.89;100512.81;5019305;28;11529;-67
2023/12/08 03:39:27;;;;;;;;;28.25;26.00;;;;;2.55;89.54;100516.31;5040134;28;11577;-67
2023/12/08 03:41:54;;;;;;;;;28.25;24.00;;;;;2.60;89.73;100530.00;5032527;28;11658;-68
2023/12/08 03:44:20;;;;;;;;;41.25;30.50;;;;;2.61;89.31;100534.31;5049711;28;11623;-67
2023/12/08 03:46:47;;;;;;;;;27.25;27.25;;;;;2.66;89.61;100533.88;5038145;28;11565;-67
2023/12/08 03:49:13;;;;;;;;;34.75;27.25;;;;;2.61;89.42;100530.84;5038031;28;11583;-67
2023/12/08 03:51:40;;;;;;;;;46.25;33.25;;;;;2.57;89.63;100535.59;5030721;28;11598;-68
2023/12/08 03:54:06;;;;;;;;;34.00;29.25;;;;;2.56;90.12;100533.94;5029083;28;11105;-67
2023/12/08 03:56:33;;;;;;;;;38.25;27.25;;;;;2.63;89.81;100531.50;5016117;28;11676;-67
2023/12/08 03:58:59;;;;;;;;;32.00;27.25;;;;;2.65;89.78;100527.72;5043349;28;11510;-67
2023/12/08 04:01:26;;;;;;;;;38.75;29.50;;;;;2.64;89.89;100531.38;5040969;28;11574;-67
2023/12/08 04:03:52;;;;;;;;;32.00;26.50;;;;;2.66;89.49;100528.56;5043855;28;11536;-68
2023/12/08 04:06:19;;;;;;;;;25.50;25.00;;;;;2.68;90.09;100526.59;5023509;28;11579;-68
2023/12/08 04:08:45;;;;;;;;;31.25;24.50;;;;;2.62;90.22;100527.19;5022073;28;11507;-67
2023/12/08 04:11:12;;;;;;;;;35.25;29.50;;;;;2.55;90.16;100497.72;5037221;28;11554;-67
2023/12/08 04:13:39;;;;;;;;;26.50;25.00;;;;;2.60;89.87;100500.78;5031112;28;11553;-68
2023/12/08 04:16:06;;;;;;;;;34.25;28.50;;;;;2.56;90.00;100509.19;5047669;28;11539;-66
2023/12/08 04:18:34;;;;;;;;;36.00;30.00;;;;;2.55;90.09;100505.69;5041733;28;11565;-68
2023/12/08 04:21:01;;;;;;;;;31.00;27.25;;;;;2.56;90.40;100525.13;5048220;28;11523;-67
2023/12/08 04:23:27;;;;;;;;;38.00;28.50;;;;;2.57;90.13;100508.22;5039618;28;11476;-67
2023/12/08 04:25:54;;;;;;;;;33.50;23.75;;;;;2.55;90.84;100516.31;5039664;28;11527;-67
2023/12/08 04:28:23;;;;;;;;;30.25;26.25;;;;;2.57;91.02;100524.16;5013612;28;12246;-68
2023/12/08 04:30:50;;;;;;;;;34.50;33.50;;;;;2.54;90.53;100535.91;5030137;28;11550;-67
2023/12/08 04:33:16;;;;;;;;;34.25;26.00;;;;;2.62;90.85;100528.00;5021965;28;11558;-66
2023/12/08 04:35:43;;;;;;;;;35.50;28.25;;;;;2.64;90.36;100530.53;5025673;28;11540;-67
2023/12/08 04:38:10;;;;;;;;;34.75;32.75;;;;;2.63;90.92;100518.22;5046639;28;11571;-67
2023/12/08 04:40:36;;;;;;;;;37.50;33.00;;;;;2.64;90.79;100522.56;5047971;28;11608;-67
2023/12/08 04:43:03;;;;;;;;;28.75;28.25;;;;;2.67;90.55;100524.91;5012479;28;11562;-69
2023/12/08 04:45:30;;;;;;;;;26.00;24.50;;;;;2.67;90.44;100524.91;5038465;28;12245;-67
2023/12/08 04:47:58;;;;;;;;;27.25;24.75;;;;;2.67;90.64;100524.91;5031750;28;11530;-67
2023/12/08 04:50:24;;;;;;;;;27.00;24.00;;;;;2.69;90.77;100523.78;5038171;28;11514;-67
2023/12/08 04:52:51;;;;;;;;;34.00;30.75;;;;;2.70;90.78;100525.44;5047170;28;11502;-65
2023/12/08 04:55:18;;;;;;;;;33.75;29.75;;;;;2.70;90.68;100522.78;5024069;28;11550;-67
2023/12/08 04:57:44;;;;;;;;;33.25;30.75;;;;;2.65;90.83;100524.22;5019235;28;11525;-66
2023/12/08 05:00:11;;;;;;;;;32.25;24.75;;;;;2.63;90.87;100510.25;5030646;28;11597;-65
2023/12/08 05:02:38;;;;;;;;;30.00;26.50;;;;;2.63;91.19;100516.41;5048053;28;12220;-65
2023/12/08 05:05:05;;;;;;;;;31.50;26.50;;;;;2.64;90.92;100519.91;5047633;28;11544;-68
2023/12/08 05:07:31;;;;;;;;;27.50;24.00;;;;;2.68;90.91;100515.97;5043573;28;11530;-67
2023/12/08 05:09:58;;;;;;;;;35.50;31.75;;;;;2.70;90.91;100511.31;5046588;28;12229;-67
2023/12/08 05:12:25;;;;;;;;;32.50;25.00;;;;;2.67;90.86;100501.84;5039120;28;11536;-67
2023/12/08 05:14:51;;;;;;;;;28.00;25.00;;;;;2.67;90.64;100499.19;5026639;28;11647;-66
2023/12/08 05:17:18;;;;;;;;;35.25;30.00;;;;;2.65;90.58;100477.22;5048020;28;11651;-66
2023/12/08 05:19:44;;;;;;;;;36.75;29.75;;;;;2.60;91.22;100484.00;5037709;28;11525;-67
2023/12/08 05:22:11;;;;;;;;;38.00;28.25;;;;;2.53;91.04;100488.25;5035921;28;11576;-67
2023/12/08 05:24:38;;;;;;;;;31.50;28.00;;;;;2.57;91.58;100490.44;5048341;28;11527;-66
2023/12/08 05:27:05;;;;;;;;;45.50;29.00;;;;;2.54;91.64;100488.06;5026341;28;11480;-67
2023/12/08 05:29:32;;;;;;;;;31.50;28.00;;;;;2.59;91.42;100479.66;5046083;28;11582;-67
2023/12/08 05:31:59;;;;;;;;;29.00;24.00;;;;;2.62;91.94;100488.16;5029519;28;11556;-67
2023/12/08 05:34:25;;;;;;;;;29.00;23.75;;;;;2.69;91.43;100491.06;5041677;28;11513;-67
2023/12/08 05:36:52;;;;;;;;;28.50;25.75;;;;;2.69;92.08;100491.06;5041886;28;11615;-67
2023/12/08 05:39:18;;;;;;;;;40.50;27.75;;;;;2.68;91.86;100494.72;5048565;28;11499;-66
2023/12/08 05:41:46;;;;;;;;;35.25;26.50;;;;;2.68;91.53;100495.53;5047958;28;11556;-70
2023/12/08 05:44:15;;;;;;;;;34.25;29.00;;;;;2.69;91.65;100491.06;5051735;28;11515;-68
2023/12/08 05:46:41;;;;;;;;;33.75;30.50;;;;;2.69;91.96;100501.69;5041942;28;11608;-67
2023/12/08 05:49:07;;;;;;;;;30.00;26.25;;;;;2.73;91.76;100503.06;5043352;28;11542;-70
2023/12/08 05:51:34;;;;;;;;;31.75;29.75;;;;;2.73;92.24;100505.72;5038828;28;11626;-66
2023/12/08 05:54:01;;;;;;;;;38.75;26.75;;;;;2.69;91.89;100505.16;5044353;28;11618;-70
2023/12/08 05:56:27;;;;;;;;;30.75;24.25;;;;;2.76;91.88;100515.22;5049624;28;11604;-68
2023/12/08 05:58:54;;;;;;;;;35.00;28.25;;;;;2.73;nan;100503.06;5048605;28;11566;-69
2023/12/08 06:01:21;;;;;;;;;36.50;30.75;;;;;2.71;91.80;100497.91;5042840;28;12290;-66
2023/12/08 06:03:49;;;;;;;;;30.75;24.00;;;;;2.72;91.68;100494.25;5048082;28;11543;-66
2023/12/08 06:06:16;;;;;;;;;33.75;29.00;;;;;2.71;91.41;100502.34;5048044;28;11667;-70
2023/12/08 06:08:42;;;;;;;;;37.75;31.75;;;;;2.65;92.14;100501.16;5033684;28;11505;-67
2023/12/08 06:11:09;;;;;;;;;34.25;28.25;;;;;2.73;92.41;100514.50;5045362;28;11637;-66
2023/12/08 06:13:35;;;;;;;;;49.25;38.00;;;;;2.73;92.20;100519.00;5022692;28;12329;-68
2023/12/08 06:16:03;;;;;;;;;33.25;29.75;;;;;2.76;92.21;100517.88;5046845;28;11553;-68
2023/12/08 06:18:30;;;;;;;;;39.75;28.50;;;;;2.80;92.30;100519.25;5047862;28;11539;-67
2023/12/08 06:20:58;;;;;;;;;36.00;32.25;;;;;2.84;92.08;100529.41;5026910;28;11552;-67
2023/12/08 06:23:25;;;;;;;;;33.75;28.75;;;;;2.86;91.76;100515.94;5040742;28;11556;-67
2023/12/08 06:25:51;;;;;;;;;33.75;27.50;;;;;2.89;91.87;100524.47;5043424;28;11476;-66
2023/12/08 06:28:18;;;;;;;;;42.50;32.00;;;;;2.87;91.82;100517.63;5047337;28;12242;-69
2023/12/08 06:30:44;;;;;;;;;35.50;26.50;;;;;2.86;91.55;100518.63;5030277;28;11518;-67
2023/12/08 06:33:11;;;;;;;;;32.00;27.50;;;;;2.86;92.19;100519.44;5049777;28;11565;-67
2023/12/08 06:35:37;;;;;;;;;31.50;31.50;;;;;2.89;92.38;100513.84;5050812;28;11684;-66
2023/12/08 06:38:04;;;;;;;;;30.00;30.00;;;;;2.87;91.88;100515.78;5034586;28;11542;-66
2023/12/08 06:40:31;;;;;;;;;36.00;32.25;;;;;2.89;92.31;100507.69;5044694;28;11544;-67
2023/12/08 06:42:57;;;;;;;;;42.75;32.50;;;;;2.82;92.22;100502.13;5030552;28;11560;-67
2023/12/08 06:45:24;;;;;;;;;33.00;29.00;;;;;2.87;92.22;100517.63;5049653;28;11522;-67
2023/12/08 06:47:50;;;;;;;;;36.50;31.25;;;;;2.86;92.08;100518.63;5028659;28;11559;-67
2023/12/08 06:50:17;;;;;;;;;46.00;31.50;;;;;2.87;92.33;100518.44;5039887;28;11632;-69
2023/12/08 06:52:44;;;;;;;;;36.50;33.00;;;;;2.86;92.30;100511.47;5049755;28;11674;-66
2023/12/08 06:55:11;;;;;;;;;41.75;34.25;;;;;2.87;92.70;100515.78;5049731;28;12276;-67
2023/12/08 06:57:38;;;;;;;;;33.25;28.25;;;;;2.91;92.67;100517.16;5048385;28;11519;-70
2023/12/08 07:00:10;;;;;;;;;36.25;34.75;;;;;2.95;92.68;100517.69;5046569;28;11542;-67
2023/12/08 07:02:36;;;;;;;;;36.00;26.50;;;;;2.98;92.63;100515.56;5040794;28;11553;-66
2023/12/08 07:05:03;;;;;;;;;34.50;29.00;;;;;3.00;92.53;100514.56;5033781;28;11619;-68
2023/12/08 07:07:30;;;;;;;;;28.00;25.50;;;;;3.01;92.03;100516.25;5048330;28;11691;-66
2023/12/08 07:09:56;;;;;;;;;38.75;33.75;;;;;2.96;92.54;100511.41;5045618;28;11583;-66
2023/12/08 07:12:23;;;;;;;;;33.25;30.75;;;;;2.98;92.73;100517.38;5025198;28;11536;-68
2023/12/08 07:14:52;;;;;;;;;34.25;29.75;;;;;3.00;92.24;100517.22;5030719;28;11546;-68
2023/12/08 07:17:19;;;;;;;;;40.25;37.50;;;;;2.95;92.62;100518.53;5047339;28;11533;-68
2023/12/08 07:19:46;;;;;;;;;36.50;31.00;;;;;2.98;92.34;100522.72;5044841;28;11523;-67
2023/12/08 07:22:13;;;;;;;;;29.25;28.00;;;;;3.00;92.51;100520.75;5043597;28;11567;-67
2023/12/08 07:24:40;;;;;;;;;42.00;40.25;;;;;2.99;92.16;100524.38;5042994;28;11631;-67
2023/12/08 07:27:06;;;;;;;;;41.75;32.50;;;;;3.01;92.20;100522.41;5029784;28;11523;-66
2023/12/08 07:29:33;;;;;;;;;44.75;38.50;;;;;2.97;92.54;100526.38;5029991;28;11661;-66
2023/12/08 07:31:59;;;;;;;;;30.00;30.00;;;;;3.00;92.77;100530.53;5044124;28;11690;-65
2023/12/08 07:34:26;;;;;;;;;35.25;31.00;;;;;3.04;92.76;100534.53;5045778;28;11530;-67
2023/12/08 07:36:52;;;;;;;;;39.25;31.75;;;;;3.06;93.13;100540.56;5039565;28;11579;-67
2023/12/08 07:39:19;;;;;;;;;31.25;27.75;;;;;3.09;92.72;100535.78;5042504;28;11523;-67
2023/12/08 07:41:46;;;;;;;;;44.25;37.75;;;;;3.03;92.54;100531.06;5047690;28;11573;-66
2023/12/08 07:44:13;;;;;;;;;41.50;31.25;;;;;3.04;93.14;100531.88;5020431;28;11555;-69
2023/12/08 07:46:40;;;;;;;;;38.75;29.75;;;;;3.05;93.13;100542.38;5039725;28;11513;-66
2023/12/08 07:49:06;;;;;;;;;33.00;29.00;;;;;3.09;93.78;100550.91;5040045;28;11656;-70
2023/12/08 07:51:33;;;;;;;;;40.00;29.75;;;;;3.12;93.15;100546.13;5045188;28;11531;-67
2023/12/08 07:54:00;;;;;;;;;39.50;35.50;;;;;3.07;92.66;100558.19;5021993;28;11548;-67
2023/12/08 07:56:29;;;;;;;;;37.75;30.50;;;;;3.07;93.37;100555.53;5026749;28;11541;-68
2023/12/08 07:58:55;;;;;;;;;40.25;31.25;;;;;3.09;93.35;100550.91;5039197;28;11538;-67
2023/12/08 08:01:22;;;;;;;;;36.25;33.25;;;;;3.10;93.20;100561.38;5015932;28;11615;-67
2023/12/08 08:03:48;;;;;;;;;40.25;33.75;;;;;3.13;93.58;100561.06;5028480;28;11532;-67
2023/12/08 08:06:14;;;;;;;;;42.00;36.25;;;;;3.14;93.95;100556.59;5049922;28;11526;-68
2023/12/08 08:08:41;;;;;;;;;39.00;31.75;;;;;3.14;93.35;100565.41;5018024;28;11596;-67
2023/12/08 08:11:09;;;;;;;;;34.50;30.00;;;;;3.11;93.54;100565.69;5032141;28;11490;-66
2023/12/08 08:13:35;;;;;;;;;35.50;30.50;;;;;3.14;93.98;100561.91;5032077;28;11549;-68
2023/12/08 08:16:02;;;;;;;;;29.50;28.00;;;;;3.17;94.20;100567.75;5018493;28;11595;-67
2023/12/08 08:18:31;;;;;;;;;34.00;30.50;;;;;3.19;93.95;100567.59;5039916;28;11557;-67
2023/12/08 08:20:58;;;;;;;;;32.25;30.25;;;;;3.19;94.00;100568.44;5014248;28;11590;-67
2023/12/08 08:23:24;;;;;;;;;33.25;31.00;;;;;3.15;93.85;100566.22;5039595;28;11574;-67
2023/12/08 08:25:51;;;;;;;;;28.25;25.25;;;;;3.18;94.29;100560.59;5021115;28;12207;-68
2023/12/08 08:28:19;;;;;;;;;42.00;35.50;;;;;3.18;94.14;100558.78;5046360;28;11834;-66
2023/12/08 08:30:45;;;;;;;;;35.00;27.25;;;;;3.25;94.58;100569.66;5048824;28;11544;-67
2023/12/08 08:33:12;;;;;;;;;36.00;32.25;;;;;3.27;94.72;100577.47;5045877;28;11558;-67
2023/12/08 08:35:39;;;;;;;;;33.25;27.75;;;;;3.28;94.60;100580.00;5034801;28;11692;-68
2023/12/08 08:38:06;;;;;;;;;34.25;32.50;;;;;3.24;94.29;100586.59;5023091;28;11583;-68
2023/12/08 08:40:33;;;;;;;;;33.75;28.25;;;;;3.27;94.25;100574.81;5041663;28;12234;-67
2023/12/08 08:42:59;;;;;;;;;40.50;31.50;;;;;3.29;94.86;100573.69;5040589;28;11546;-68
2023/12/08 08:45:26;;;;;;;;;47.25;32.25;;;;;3.29;94.64;100580.81;5028339;28;11549;-68
2023/12/08 08:47:52;;;;;;;;;34.00;27.00;;;;;3.30;94.38;100580.66;5047896;28;11522;-68
2023/12/08 08:50:21;;;;;;;;;31.00;28.50;;;;;3.36;94.96;100579.19;5039948;28;11526;-67
2023/12/08 08:52:47;;;;;;;;;34.00;29.75;;;;;3.38;95.05;100590.53;5037608;28;11575;-67
2023/12/08 08:55:14;;;;;;;;;38.75;34.75;;;;;3.37;94.76;100604.84;5031586;28;11555;-68
2023/12/08 08:57:40;;;;;;;;;42.75;27.25;;;;;3.39;94.67;100611.66;5036132;28;11577;-68
2023/12/08 09:00:12;;;;;;;;;30.75;26.50;;;;;3.45;94.86;100610.22;5042262;28;11614;-67
2023/12/08 09:02:38;;;;;;;;;35.50;29.25;;;;;3.47;94.89;100602.91;5026976;28;11638;-68
2023/12/08 09:05:05;;;;;;;;;35.50;29.25;;;;;3.45;94.58;100600.41;5043331;28;11589;-67
2023/12/08 09:07:32;;;;;;;;;32.00;28.50;;;;;3.57;95.43;100601.00;5040911;28;11649;-67
2023/12/08 09:10:00;;;;;;;;;34.25;24.00;;;;;3.59;94.79;100600.84;5014721;28;11618;-67
2023/12/08 09:12:27;;;;;;;;;36.50;27.00;;;;;3.56;94.82;100594.00;5039384;28;11701;-68
2023/12/08 09:14:53;;;;;;;;;32.75;28.50;;;;;3.55;94.85;100591.50;5031563;28;11666;-68
2023/12/08 09:17:20;;;;;;;;;31.50;26.25;;;;;3.58;95.24;100593.84;5045108;28;11587;-67
2023/12/08 09:19:47;;;;;;;;;33.25;28.25;;;;;3.59;94.85;100588.38;5045212;28;11735;-67
2023/12/08 09:22:14;;;;;;;;;34.50;29.00;;;;;3.66;95.39;100588.59;5045873;28;11730;-68
2023/12/08 09:24:41;;;;;;;;;37.25;27.25;;;;;3.65;94.69;100594.91;5029623;28;11600;-68
2023/12/08 09:27:07;;;;;;;;;28.00;27.00;;;;;3.65;95.49;100594.91;5050003;28;11673;-68
2023/12/08 09:29:34;;;;;;;;;28.25;24.75;;;;;3.69;95.10;100596.28;5041266;28;11561;-68
2023/12/08 09:32:00;;;;;;;;;43.00;34.00;;;;;3.66;94.81;100583.28;5041269;28;11712;-67
2023/12/08 09:34:26;;;;;;;;;30.25;27.50;;;;;3.66;94.74;100599.25;5051923;28;12302;-67
2023/12/08 09:36:54;;;;;;;;;30.25;28.25;;;;;3.66;95.08;100594.75;5021464;28;11604;-68
2023/12/08 09:39:40;;;;;;;;;31.75;25.50;;;;;3.71;95.33;100604.94;5044926;28;11601;-68
2023/12/08 09:42:16;;;;;;;;;31.00;28.25;;;;;3.71;95.07;100602.25;5051854;28;11774;-68
2023/12/08 09:44:43;;;;;;;;;36.00;32.50;;;;;3.69;95.39;100593.63;5031106;28;11599;-67
2023/12/08 09:47:12;;;;;;;;;30.25;25.25;;;;;3.72;95.76;100602.09;5045572;28;11600;-68
2023/12/08 09:49:44;;;;;;;;;37.00;29.75;;;;;3.75;95.84;100600.97;5031971;28;12300;-67
2023/12/08 09:52:13;;;;;;;;;36.00;32.00;;;;;3.75;95.24;100605.47;5044895;28;11738;-67
2023/12/08 09:54:41;;;;;;;;;37.00;28.50;;;;;3.74;95.84;100607.28;5036517;28;11612;-67
2023/12/08 09:57:09;;;;;;;;;25.25;24.00;;;;;3.80;95.74;100605.81;5045380;28;11620;-70
2023/12/08 09:59:41;;;;;;;;;35.75;29.25;;;;;3.82;95.63;100617.16;5048185;28;12307;-69
2023/12/08 10:02:08;;;;;;;;;24.00;22.00;;;;;3.85;96.24;100609.69;5023373;28;11649;-67
2023/12/08 10:04:35;;;;;;;;;34.25;29.00;;;;;3.87;95.83;100597.06;5048094;28;11581;-68
2023/12/08 10:07:05;;;;;;;;;30.50;28.50;;;;;3.87;96.00;100604.22;5043318;28;12313;-68
2023/12/08 10:09:32;;;;;;;;;29.50;26.50;;;;;3.93;96.06;100603.59;5043402;28;11595;-67
2023/12/08 10:11:59;;;;;;;;;35.50;27.25;;;;;3.96;96.20;100604.09;5030276;28;11575;-67
2023/12/08 10:14:25;;;;;;;;;32.50;27.25;;;;;3.99;96.17;100602.13;5036640;28;11575;-66
2023/12/08 10:16:52;;;;;;;;;40.25;34.75;;;;;4.00;96.72;100606.44;5036845;28;11574;-67
2023/12/08 10:19:21;;;;;;;;;33.00;31.00;;;;;4.06;96.78;100608.50;5057150;28;11583;-68
2023/12/08 10:21:58;;;;;;;;;30.00;25.50;;;;;4.07;95.75;100612.81;5038037;28;11601;-67
2023/12/08 10:24:27;;;;;;;;;32.50;26.50;;;;;4.07;96.82;100599.50;5049331;28;11630;-68
2023/12/08 10:26:54;;;;;;;;;31.00;24.50;;;;;4.09;96.68;100602.81;5051516;28;12332;-67
2023/12/08 10:29:20;;;;;;;;;38.00;29.00;;;;;4.11;97.15;100598.19;5042731;28;11611;-67
2023/12/08 10:31:47;;;;;;;;;30.75;25.25;;;;;4.14;97.07;100589.88;5049113;28;11560;-67
2023/12/08 10:34:13;;;;;;;;;31.50;25.00;;;;;4.17;97.09;100595.75;5050816;28;11637;-67
2023/12/08 10:36:40;;;;;;;;;40.50;32.75;;;;;4.18;96.44;100601.91;5028915;28;11751;-67
2023/12/08 10:39:07;;;;;;;;;41.75;30.50;;;;;4.21;97.52;100601.56;5051333;28;11587;-69
2023/12/08 10:41:34;;;;;;;;;30.75;25.00;;;;;4.24;96.83;100595.91;5034526;28;12285;-68
2023/12/08 10:44:03;;;;;;;;;24.00;23.75;;;;;4.61;100.00;100592.06;5027820;28;12367;-68
2023/12/08 10:46:31;;;;;;;;;21.75;20.00;;;;;4.79;99.09;100595.47;5045544;28;11550;-69
2023/12/08 10:49:01;;;;;;;;;29.25;23.75;;;;;4.71;97.43;100595.44;5014017;28;11593;-67
2023/12/08 10:51:29;;;;;;;;;26.75;25.25;;;;;4.63;96.99;100592.75;5032188;28;11668;-68
2023/12/08 10:53:59;;;;;;;;;26.50;21.00;;;;;4.59;96.89;100597.56;5034362;28;11623;-67
2023/12/08 10:56:26;;;;;;;;;34.50;27.00;;;;;4.53;97.28;100586.72;5041444;28;11699;-67
2023/12/08 10:59:01;;;;;;;;;51.00;37.00;;;;;4.44;97.33;100597.34;5035659;28;11643;-69
2023/12/08 11:01:32;;;;;;;;;38.00;34.00;;;;;4.41;97.85;100599.50;5025906;28;12621;-70
2023/12/08 11:04:03;;;;;;;;;40.50;33.75;;;;;4.43;97.88;100585.03;5055495;28;11607;-68
2023/12/08 11:06:42;;;;;;;;;42.25;32.00;;;;;4.50;97.87;100589.69;5038552;28;11580;-69
2023/12/08 11:09:12;;;;;;;;;39.25;33.00;;;;;4.55;98.00;100587.41;5042349;28;11575;-67
2023/12/08 11:11:48;;;;;;;;;33.25;29.00;;;;;4.59;98.03;100586.91;5022058;28;11630;-68
2023/12/08 11:14:27;;;;;;;;;17.25;16.00;;;;;4.95;100.00;100584.00;5042911;28;11598;-68
2023/12/08 11:17:04;;;;;;;;;31.00;26.00;;;;;4.96;98.63;100583.00;5023444;28;11566;-68